createdAt,value
2024-02-19T00:00:36.049Z,1617
2024-02-19T00:05:54.477Z,1628
2024-02-19T00:11:12.862Z,1643
2024-02-19T00:16:31.099Z,1676
2024-02-19T00:21:49.667Z,1700
2024-02-19T00:27:08.210Z,1711
2024-02-19T00:32:26.570Z,1714
2024-02-19T00:37:45.316Z,1732
2024-02-19T00:43:03.274Z,1750
2024-02-19T00:48:21.428Z,1761
2024-02-19T00:53:40.128Z,1760
2024-02-19T00:58:58.895Z,1767
2024-02-19T01:04:17.284Z,1763
2024-02-19T01:09:35.991Z,1772
2024-02-19T01:14:54.636Z,1780
2024-02-19T01:20:12.964Z,1770
2024-02-19T01:25:31.464Z,1777
2024-02-19T01:30:49.616Z,1771
2024-02-19T01:36:08.088Z,1771
2024-02-19T01:41:26.194Z,1775
2024-02-19T01:46:44.404Z,1789
2024-02-19T01:52:02.845Z,1774
2024-02-19T01:57:21.120Z,1782
2024-02-19T02:02:39.466Z,1798
2024-02-19T02:07:57.846Z,1802
2024-02-19T02:13:15.843Z,1801
2024-02-19T02:18:34.260Z,1790
2024-02-19T02:23:52.674Z,1767
2024-02-19T02:29:10.984Z,1762
2024-02-19T02:34:29.678Z,1750
2024-02-19T02:39:48.186Z,1749
2024-02-19T02:45:06.303Z,1756
2024-02-19T02:50:24.465Z,1752
2024-02-19T02:55:42.672Z,1747
2024-02-19T03:01:00.831Z,1741
2024-02-19T03:06:24.619Z,1748
2024-02-19T03:11:42.910Z,1750
2024-02-19T03:17:01.022Z,1746
2024-02-19T03:22:19.430Z,1744
2024-02-19T03:27:38.172Z,1746
2024-02-19T03:32:56.477Z,1746
2024-02-19T03:38:15.212Z,1738
2024-02-19T03:43:33.361Z,1742
2024-02-19T03:48:51.764Z,1748
2024-02-19T03:54:11.707Z,1743
2024-02-19T03:59:32.601Z,1742
2024-02-19T04:04:50.748Z,1748
2024-02-19T04:10:08.957Z,1738
2024-02-19T04:15:27.442Z,1739
2024-02-19T04:20:46.018Z,1741
2024-02-19T04:26:04.327Z,1731
2024-02-19T04:31:22.830Z,1730
2024-02-19T04:36:25.739Z,1727
2024-02-19T04:41:43.898Z,1699
2024-02-19T04:47:02.440Z,1674
2024-02-19T04:52:20.581Z,1645
2024-02-19T04:57:38.837Z,1620
2024-02-19T05:02:57.241Z,1590
2024-02-19T05:08:15.373Z,1577
2024-02-19T05:13:33.702Z,1565
2024-02-19T05:18:52.141Z,1556
2024-02-19T05:24:10.646Z,1538
2024-02-19T05:29:29.178Z,1520
2024-02-19T05:34:47.876Z,1471
2024-02-19T05:40:06.451Z,1468
2024-02-19T05:45:24.698Z,1472
2024-02-19T05:50:42.877Z,1482
2024-02-19T05:56:01.128Z,1459
2024-02-19T06:01:19.409Z,1434
2024-02-19T06:06:38.154Z,1414
2024-02-19T06:11:56.645Z,1392
2024-02-19T06:17:15.000Z,1368
2024-02-19T06:22:33.536Z,1358
2024-02-19T06:27:36.077Z,1336
2024-02-19T06:32:54.292Z,1320
2024-02-19T06:38:12.655Z,1307
2024-02-19T06:43:30.762Z,1292
2024-02-19T06:48:50.445Z,1290
2024-02-19T06:54:09.531Z,1284
2024-02-19T06:59:27.682Z,1274
2024-02-19T07:04:46.118Z,1258
2024-02-19T07:10:05.347Z,1250
2024-02-19T07:15:23.816Z,1251
2024-02-19T07:20:42.081Z,1246
2024-02-19T07:26:00.291Z,1231
2024-02-19T07:31:18.800Z,1224
2024-02-19T07:36:37.319Z,1223
2024-02-19T07:41:56.050Z,1213
2024-02-19T07:47:14.202Z,1204
2024-02-19T07:52:32.622Z,1200
2024-02-19T07:57:50.863Z,1203
2024-02-19T08:03:09.420Z,1198
2024-02-19T08:08:27.954Z,1199
2024-02-19T08:13:46.214Z,1193
2024-02-19T08:19:05.178Z,1190
2024-02-19T08:24:23.642Z,1181
2024-02-19T08:29:41.779Z,1174
2024-02-19T08:34:59.923Z,1170
2024-02-19T08:40:18.784Z,1159
2024-02-19T08:45:37.713Z,1147
2024-02-19T08:50:56.212Z,1148
2024-02-19T08:56:14.481Z,1146
2024-02-19T09:01:32.865Z,1141
2024-02-19T09:06:51.465Z,1139
2024-02-19T09:12:13.276Z,1139
2024-02-19T09:17:31.275Z,1136
2024-02-19T09:22:49.569Z,1130
2024-02-19T09:28:07.556Z,1128
2024-02-19T09:33:25.923Z,1122
2024-02-19T09:38:44.239Z,1118
2024-02-19T09:44:02.624Z,1118
2024-02-19T09:49:20.598Z,1114
2024-02-19T09:54:39.005Z,1107
2024-02-19T09:59:57.606Z,1100
2024-02-19T10:05:16.179Z,1093
2024-02-19T10:10:34.980Z,1084
2024-02-19T10:15:53.453Z,1075
2024-02-19T10:21:11.908Z,1076
2024-02-19T10:26:30.027Z,1068
2024-02-19T10:31:48.158Z,1062
2024-02-19T10:37:06.301Z,1056
2024-02-19T10:42:24.610Z,1054
2024-02-19T10:47:43.033Z,1045
2024-02-19T10:53:01.297Z,1042
2024-02-19T10:58:19.609Z,1032
2024-02-19T11:03:38.161Z,1026
2024-02-19T11:08:56.584Z,1018
2024-02-19T11:14:14.692Z,1012
2024-02-19T11:19:33.299Z,1007
2024-02-19T11:24:51.477Z,1000
2024-02-19T11:30:10.062Z,988
2024-02-19T11:35:28.520Z,978
2024-02-19T11:40:50.342Z,970
2024-02-19T11:46:09.410Z,959
2024-02-19T11:51:27.756Z,958
2024-02-19T11:56:46.285Z,960
2024-02-19T12:02:04.738Z,952
2024-02-19T12:07:25.347Z,951
2024-02-19T12:12:44.262Z,944
2024-02-19T12:18:03.043Z,938
2024-02-19T12:23:21.422Z,936
2024-02-19T12:28:39.566Z,933
2024-02-19T12:33:57.725Z,931
2024-02-19T12:39:16.576Z,923
2024-02-19T12:44:34.745Z,918
2024-02-19T12:49:53.026Z,909
2024-02-19T12:55:12.475Z,891
2024-02-19T13:00:37.524Z,892
2024-02-19T13:05:56.071Z,891
2024-02-19T13:11:14.720Z,871
2024-02-19T13:16:33.154Z,871
2024-02-19T13:21:51.403Z,864
2024-02-19T13:27:09.940Z,855
2024-02-19T13:32:28.286Z,850
2024-02-19T13:37:46.546Z,841
2024-02-19T13:43:04.853Z,837
2024-02-19T13:48:24.286Z,829
2024-02-19T13:53:42.796Z,824
2024-02-19T13:59:01.125Z,824
2024-02-19T14:04:19.545Z,817
2024-02-19T14:09:38.358Z,807
2024-02-19T14:14:56.573Z,804
2024-02-19T14:20:15.194Z,798
2024-02-19T14:25:34.473Z,793
2024-02-19T14:30:53.366Z,603
2024-02-19T14:36:14.585Z,503
2024-02-19T14:41:33.103Z,461
2024-02-19T14:46:54.401Z,443
2024-02-19T14:52:25.709Z,461
2024-02-19T14:57:44.353Z,483
2024-02-19T15:03:03.155Z,499
2024-02-19T15:08:21.971Z,509
2024-02-19T15:13:40.406Z,525
2024-02-19T15:18:59.502Z,538
2024-02-19T15:24:18.296Z,548
2024-02-19T15:29:36.217Z,560
2024-02-19T15:34:54.332Z,568
2024-02-19T15:40:12.976Z,577
2024-02-19T15:45:31.622Z,583
2024-02-19T15:50:50.180Z,591
2024-02-19T15:56:08.391Z,608
2024-02-19T16:01:26.753Z,634
2024-02-19T16:06:45.374Z,688
2024-02-19T16:12:05.345Z,709
2024-02-19T16:17:23.820Z,731
2024-02-19T16:22:42.115Z,746
2024-02-19T16:28:00.493Z,755
2024-02-19T16:33:18.825Z,780
2024-02-19T16:38:36.981Z,803
2024-02-19T16:43:55.519Z,773
2024-02-19T16:49:14.000Z,783
2024-02-19T16:54:33.022Z,792
2024-02-19T16:59:51.649Z,815
2024-02-19T17:05:10.399Z,816
2024-02-19T17:10:29.429Z,816
2024-02-19T17:15:48.523Z,813
2024-02-19T17:21:06.866Z,813
2024-02-19T17:26:25.302Z,817
2024-02-19T17:31:44.912Z,807
2024-02-19T17:37:08.269Z,814
2024-02-19T17:42:27.098Z,815
2024-02-19T17:47:45.528Z,815
2024-02-19T17:53:03.916Z,821
2024-02-19T17:58:22.346Z,819
2024-02-19T18:03:41.075Z,818
2024-02-19T18:08:59.611Z,820
2024-02-19T18:14:18.115Z,820
2024-02-19T18:19:36.399Z,820
2024-02-19T18:24:39.490Z,828
2024-02-19T18:29:42.013Z,831
2024-02-19T18:35:00.303Z,834
2024-02-19T18:40:21.237Z,842
2024-02-19T18:45:39.497Z,842
2024-02-19T18:50:57.659Z,853
2024-02-19T18:56:15.781Z,856
2024-02-19T19:01:34.505Z,864
2024-02-19T19:06:53.215Z,873
2024-02-19T19:12:11.412Z,883
2024-02-19T19:17:30.074Z,912
2024-02-19T19:22:48.701Z,933
2024-02-19T19:28:07.008Z,950
2024-02-19T19:33:25.937Z,957
2024-02-19T19:38:44.677Z,968
2024-02-19T19:44:02.623Z,973
2024-02-19T19:49:20.769Z,985
2024-02-19T19:54:39.746Z,998
2024-02-19T19:59:58.171Z,1007
2024-02-19T20:05:16.864Z,1016
2024-02-19T20:10:35.612Z,1024
2024-02-19T20:15:54.397Z,1054
2024-02-19T20:21:12.993Z,1091
2024-02-19T20:26:31.353Z,1120
2024-02-19T20:31:49.263Z,1165
2024-02-19T20:37:07.433Z,1218
2024-02-19T20:42:25.838Z,1266
2024-02-19T20:47:43.992Z,1315
2024-02-19T20:53:03.509Z,1344
2024-02-19T20:58:21.907Z,1348
2024-02-19T21:03:43.134Z,1327
2024-02-19T21:09:08.090Z,1320
2024-02-19T21:14:26.219Z,1301
2024-02-19T21:19:44.594Z,1283
2024-02-19T21:25:03.349Z,1269
2024-02-19T21:30:22.278Z,1293
2024-02-19T21:35:40.427Z,1321
2024-02-19T21:40:58.936Z,1342
2024-02-19T21:46:16.952Z,1388
2024-02-19T21:51:35.287Z,1411
2024-02-19T21:56:53.491Z,1429
2024-02-19T22:02:12.120Z,1432
2024-02-19T22:07:30.450Z,1434
2024-02-19T22:12:48.915Z,1441
2024-02-19T22:18:07.176Z,1448
2024-02-19T22:23:25.898Z,1450
2024-02-19T22:28:44.401Z,1464
2024-02-19T22:34:02.943Z,1465
2024-02-19T22:39:21.516Z,1471
2024-02-19T22:44:39.903Z,1470
2024-02-19T22:49:58.054Z,1477
2024-02-19T22:55:16.247Z,1487
2024-02-19T23:00:34.486Z,1497
2024-02-19T23:05:52.773Z,1495
2024-02-19T23:11:11.040Z,1494
2024-02-19T23:16:29.489Z,1491
2024-02-19T23:21:48.061Z,1492
2024-02-19T23:27:06.415Z,1502
2024-02-19T23:32:24.581Z,1497
2024-02-19T23:37:42.612Z,1496
2024-02-19T23:43:00.942Z,1502
2024-02-19T23:48:19.649Z,1509
2024-02-19T23:53:38.171Z,1504
2024-02-19T23:58:56.500Z,1504
